Time;durP1;ratioP1;P1;durP2;ratioP2;P2;SDS_P1;SDS_P2;PMS_P1;PMS_P2;Temp;Humidity;BMP_temperature;BMP_pressure;BME280_temperature;BME280_humidity;BME280_pressure;Samples;Min_cycle;Max_cycle;Signal;HPM_P1;HPM_P2
2021/01/02 00:01:17;;;;;;;2.88;2.30;;;5.30;76.60;;;;;;5044392;28;20124;-74
2021/01/02 00:04:25;;;;;;;2.78;2.58;;;5.20;76.40;;;;;;5046318;28;20024;-74
2021/01/02 00:07:07;;;;;;;6.75;3.13;;;5.20;76.40;;;;;;5046457;28;20338;-74
2021/01/02 00:09:34;;;;;;;2.88;2.50;;;5.20;76.40;;;;;;5045872;28;20064;-75
2021/01/02 00:12:15;;;;;;;3.38;2.65;;;5.20;76.40;;;;;;5046304;28;20484;-75
2021/01/02 00:15:06;;;;;;;3.65;2.75;;;5.20;76.40;;;;;;5045895;28;20431;-74
2021/01/02 00:17:41;;;;;;;3.33;2.80;;;5.20;76.40;;;;;;5039638;28;20426;-74
2021/01/02 00:20:26;;;;;;;3.30;2.80;;;5.20;76.40;;;;;;5044101;28;20523;-75
2021/01/02 00:22:54;;;;;;;4.68;2.97;;;5.20;76.40;;;;;;5045114;28;20025;-74
2021/01/02 00:25:31;;;;;;;3.80;2.50;;;5.10;76.20;;;;;;5046232;28;20499;-75
2021/01/02 00:28:12;;;;;;;4.43;2.95;;;5.10;76.20;;;;;;5045663;28;20032;-75
2021/01/02 00:30:56;;;;;;;2.65;2.45;;;5.10;76.20;;;;;;5045750;28;20112;-74
2021/01/02 00:33:35;;;;;;;2.33;2.13;;;5.10;76.20;;;;;;5046169;28;20429;-75
2021/01/02 00:36:08;;;;;;;3.55;2.78;;;5.10;76.30;;;;;;5045921;28;20033;-74
2021/01/02 00:38:38;;;;;;;4.47;2.58;;;5.10;76.30;;;;;;5044242;28;20169;-75
2021/01/02 00:41:06;;;;;;;3.22;2.17;;;5.10;76.30;;;;;;5045727;28;20131;-74
2021/01/02 00:43:36;;;;;;;3.22;2.60;;;5.10;76.30;;;;;;5045699;28;20076;-75
2021/01/02 00:46:02;;;;;;;3.33;2.20;;;5.10;76.30;;;;;;5046027;28;20035;-74
2021/01/02 00:48:31;;;;;;;6.18;2.63;;;5.10;76.30;;;;;;5045464;28;20032;-75
2021/01/02 00:51:01;;;;;;;3.15;2.47;;;5.10;76.20;;;;;;5044325;28;20029;-75
2021/01/02 00:54:29;;;;;;;2.72;2.33;;;5.10;76.30;;;;;;5027330;28;20029;-75
2021/01/02 00:57:03;;;;;;;5.32;2.25;;;5.10;76.20;;;;;;5001034;28;20041;-74
2021/01/02 01:00:07;;;;;;;3.17;2.17;;;5.00;76.00;;;;;;5059944;28;20021;-75
2021/01/02 01:03:02;;;;;;;3.03;2.03;;;5.00;76.00;;;;;;5045138;28;20412;-74
2021/01/02 01:05:36;;;;;;;3.35;2.40;;;5.00;76.00;;;;;;5043278;28;20062;-74
2021/01/02 01:08:04;;;;;;;2.10;1.80;;;5.00;76.00;;;;;;5044229;28;20047;-74
2021/01/02 01:10:35;;;;;;;4.00;2.70;;;4.90;75.90;;;;;;5045241;28;20080;-74
2021/01/02 01:13:07;;;;;;;3.65;2.22;;;4.90;75.90;;;;;;5044729;28;20025;-76
2021/01/02 01:15:34;;;;;;;2.22;2.03;;;4.90;75.90;;;;;;5045140;28;20338;-75
2021/01/02 01:18:03;;;;;;;5.50;2.75;;;4.90;75.90;;;;;;5045204;28;20037;-75
2021/01/02 01:20:30;;;;;;;2.78;2.30;;;4.80;75.70;;;;;;5043027;28;20123;-74
2021/01/02 01:23:17;;;;;;;2.30;2.10;;;4.80;75.80;;;;;;5042939;28;20255;-75
2021/01/02 01:26:16;;;;;;;2.30;2.05;;;4.70;75.60;;;;;;5044674;28;20053;-75
2021/01/02 01:28:46;;;;;;;3.47;2.13;;;4.70;75.60;;;;;;5044260;28;20044;-75
2021/01/02 01:31:16;;;;;;;3.95;1.95;;;4.70;75.60;;;;;;5044867;28;20037;-76
2021/01/02 01:33:50;;;;;;;4.00;2.28;;;4.70;75.70;;;;;;5045156;28;20132;-75
2021/01/02 01:36:20;;;;;;;2.42;2.22;;;4.60;75.50;;;;;;5044603;28;20100;-75
2021/01/02 01:38:55;;;;;;;2.55;2.13;;;4.60;75.50;;;;;;5042516;28;20116;-74
2021/01/02 01:41:43;;;;;;;3.30;2.30;;;4.60;75.60;;;;;;5044207;28;20033;-75
2021/01/02 01:44:09;;;;;;;2.10;1.90;;;4.50;75.40;;;;;;5044466;28;20097;-75
2021/01/02 01:46:42;;;;;;;4.30;2.08;;;4.50;75.50;;;;;;5044544;28;20044;-75
2021/01/02 01:49:14;;;;;;;2.20;2.00;;;4.50;75.50;;;;;;5042866;28;20037;-76
2021/01/02 01:52:02;;;;;;;2.70;1.90;;;4.40;75.30;;;;;;5044325;28;20210;-76
2021/01/02 01:54:28;;;;;;;2.17;1.90;;;4.40;75.30;;;;;;5044501;28;20275;-74
2021/01/02 01:57:04;;;;;;;6.60;2.13;;;4.40;75.30;;;;;;5044525;28;20496;-76
2021/01/02 01:59:48;;;;;;;2.13;1.98;;;4.40;75.30;;;;;;5044012;28;20477;-76
2021/01/02 02:02:16;;;;;;;;;;;4.30;75.10;;;;;;5045068;28;20376;-76
2021/01/02 02:05:05;;;;;;;2.45;1.98;;;4.30;75.20;;;;;;5043758;28;19925;-75
2021/01/02 02:07:46;;;;;;;2.95;1.80;;;4.20;75.00;;;;;;5044195;28;20028;-75
2021/01/02 02:10:32;;;;;;;2.42;1.90;;;4.20;75.00;;;;;;5043984;28;20536;-75
2021/01/02 02:13:19;;;;;;;2.88;2.13;;;4.10;74.90;;;;;;5044427;28;20420;-75
2021/01/02 02:15:50;;;;;;;4.97;2.17;;;4.10;74.90;;;;;;5025807;28;20105;-74
2021/01/02 02:18:27;;;;;;;2.30;2.00;;;4.10;75.00;;;;;;5042701;28;20025;-74
2021/01/02 02:20:59;;;;;;;3.20;2.38;;;4.00;74.80;;;;;;5046690;28;20033;-74
2021/01/02 02:23:34;;;;;;;3.67;1.88;;;4.00;74.90;;;;;;5046292;28;20032;-75
2021/01/02 02:26:30;;;;;;;1.92;1.80;;;4.00;74.90;;;;;;5048340;28;20048;-75
2021/01/02 02:29:02;;;;;;;3.80;2.33;;;4.00;74.90;;;;;;5047934;28;20502;-75
2021/01/02 02:31:28;;;;;;;3.25;2.08;;;3.90;74.80;;;;;;5041885;28;20037;-75
2021/01/02 02:34:02;;;;;;;3.70;2.20;;;3.90;74.80;;;;;;5048049;28;20076;-75
2021/01/02 02:36:31;;;;;;;2.53;1.90;;;3.90;74.80;;;;;;5033165;28;20034;-75
2021/01/02 02:38:59;;;;;;;1.70;1.60;;;3.80;74.70;;;;;;5048258;28;20025;-75
2021/01/02 02:41:30;;;;;;;2.63;2.20;;;3.80;74.70;;;;;;5048767;28;20075;-75
2021/01/02 02:44:02;;;;;;;2.42;1.73;;;3.80;74.80;;;;;;5048275;28;20468;-75
2021/01/02 02:46:32;;;;;;;4.70;2.03;;;3.70;74.60;;;;;;5041969;28;20493;-74
2021/01/02 02:49:04;;;;;;;2.08;1.77;;;3.80;74.70;;;;;;5052885;28;20428;-75
2021/01/02 02:51:38;;;;;;;3.03;1.88;;;3.70;74.60;;;;;;5052374;28;20108;-75
2021/01/02 02:54:05;;;;;;;1.70;1.60;;;3.70;74.60;;;;;;5052164;28;20436;-75
2021/01/02 02:56:30;;;;;;;4.00;2.10;;;3.70;74.70;;;;;;5052428;28;20368;-74
2021/01/02 02:58:56;;;;;;;4.38;1.90;;;3.70;74.70;;;;;;5052399;28;20660;-75
2021/01/02 03:01:22;;;;;;;2.33;2.08;;;3.60;74.50;;;;;;5052109;28;20043;-75
2021/01/02 03:03:48;;;;;;;2.25;2.05;;;3.70;74.70;;;;;;5052248;28;20036;-75
2021/01/02 03:06:15;;;;;;;4.32;2.47;;;3.60;74.50;;;;;;5052453;28;20473;-74
2021/01/02 03:08:41;;;;;;;2.75;1.95;;;3.60;74.50;;;;;;5052227;28;20049;-75
2021/01/02 03:11:08;;;;;;;4.60;2.05;;;3.60;74.50;;;;;;5051324;28;20025;-75
2021/01/02 03:13:41;;;;;;;3.80;2.10;;;3.60;74.50;;;;;;5052549;28;20037;-75
2021/01/02 03:16:07;;;;;;;2.63;1.92;;;3.50;74.30;;;;;;5050318;28;20036;-75
2021/01/02 03:18:33;;;;;;;2.95;1.95;;;3.50;74.40;;;;;;5052526;28;20143;-74
2021/01/02 03:20:59;;;;;;;1.75;1.65;;;3.50;74.30;;;;;;5044196;28;20044;-74
2021/01/02 03:23:25;;;;;;;7.30;2.33;;;3.50;74.40;;;;;;5042546;28;20028;-74
2021/01/02 03:25:51;;;;;;;2.35;2.03;;;3.50;74.40;;;;;;5030641;28;20049;-75
2021/01/02 03:28:17;;;;;;;4.50;1.83;;;3.40;74.20;;;;;;5031827;28;20044;-74
2021/01/02 03:30:43;;;;;;;2.90;2.00;;;3.40;74.30;;;;;;5030576;28;20044;-74
2021/01/02 03:33:09;;;;;;;2.53;2.10;;;3.40;74.30;;;;;;5031870;28;20060;-74
2021/01/02 03:35:35;;;;;;;2.00;1.88;;;3.30;74.10;;;;;;5031715;28;20033;-74
2021/01/02 03:38:01;;;;;;;1.80;1.70;;;3.40;74.30;;;;;;5031634;28;20037;-74
2021/01/02 03:40:27;;;;;;;2.45;1.90;;;3.30;74.20;;;;;;5031641;28;20026;-74
2021/01/02 03:42:52;;;;;;;2.45;1.90;;;3.30;74.20;;;;;;5031660;28;20043;-74
2021/01/02 03:45:18;;;;;;;2.78;1.98;;;3.30;74.20;;;;;;5030545;28;20060;-74
2021/01/02 03:47:46;;;;;;;2.70;2.10;;;3.30;74.20;;;;;;5031701;28;20041;-74
2021/01/02 03:50:13;;;;;;;5.95;2.20;;;3.20;74.10;;;;;;5031579;28;20034;-75
2021/01/02 03:52:39;;;;;;;2.10;1.88;;;3.20;74.10;;;;;;5031264;28;20032;-74
2021/01/02 03:55:07;;;;;;;2.30;1.92;;;3.20;74.10;;;;;;5040144;28;20031;-75
2021/01/02 03:57:34;;;;;;;2.05;1.80;;;3.20;74.10;;;;;;5043438;28;20155;-74
2021/01/02 04:00:00;;;;;;;2.80;2.33;;;3.20;74.20;;;;;;5031552;28;20121;-74
2021/01/02 04:02:26;;;;;;;1.95;1.77;;;3.20;74.20;;;;;;5031926;28;20399;-73
2021/01/02 04:04:53;;;;;;;2.85;1.92;;;3.20;74.20;;;;;;5048340;28;20128;-74
2021/01/02 04:07:19;;;;;;;2.42;1.90;;;3.20;74.20;;;;;;5050688;28;20112;-74
2021/01/02 04:09:45;;;;;;;2.45;2.20;;;3.20;74.10;;;;;;5049221;28;20033;-74
2021/01/02 04:12:11;;;;;;;2.58;2.13;;;3.30;74.30;;;;;;5046250;28;20028;-74
2021/01/02 04:14:37;;;;;;;4.60;2.17;;;3.30;74.30;;;;;;5051328;28;20029;-75
2021/01/02 04:17:04;;;;;;;3.80;2.85;;;3.20;74.10;;;;;;5051081;28;20218;-74
2021/01/02 04:19:32;;;;;;;1.88;1.65;;;3.20;74.10;;;;;;5051191;28;20025;-74
2021/01/02 04:21:59;;;;;;;3.45;2.30;;;3.20;74.10;;;;;;5051253;28;20261;-74
2021/01/02 04:24:26;;;;;;;3.00;2.10;;;3.20;74.10;;;;;;5051093;28;20068;-75
2021/01/02 04:27:01;;;;;;;2.95;2.30;;;3.20;74.10;;;;;;5049014;28;20033;-74
2021/01/02 04:29:27;;;;;;;2.33;2.08;;;3.20;74.10;;;;;;5050976;28;20025;-74
2021/01/02 04:31:55;;;;;;;2.00;1.77;;;3.10;73.90;;;;;;5050694;28;20033;-74
2021/01/02 04:34:22;;;;;;;3.83;2.25;;;3.10;73.90;;;;;;5050181;28;20033;-75
2021/01/02 04:36:49;;;;;;;5.55;2.33;;;3.10;73.90;;;;;;5050868;28;20392;-74
2021/01/02 04:39:15;;;;;;;2.85;2.08;;;3.10;74.50;;;;;;5050872;28;20454;-75
2021/01/02 04:41:41;;;;;;;3.22;2.08;;;3.10;74.00;;;;;;5049592;28;20502;-75
2021/01/02 04:44:08;;;;;;;2.67;2.13;;;3.10;74.00;;;;;;5048741;28;20112;-74
2021/01/02 04:46:36;;;;;;;2.60;2.30;;;3.10;74.00;;;;;;5050588;28;20119;-75
2021/01/02 04:49:03;;;;;;;3.53;2.13;;;3.00;73.90;;;;;;5050214;28;20063;-74
2021/01/02 04:51:29;;;;;;;3.15;2.15;;;3.00;73.90;;;;;;5049032;28;20032;-74
2021/01/02 04:54:03;;;;;;;3.55;2.30;;;3.00;74.00;;;;;;5050424;28;20033;-75
2021/01/02 04:56:39;;;;;;;1.83;1.70;;;3.00;74.00;;;;;;5049927;28;20029;-73
2021/01/02 04:59:12;;;;;;;2.80;1.70;;;3.00;74.00;;;;;;5049033;28;20044;-75
2021/01/02 05:01:40;;;;;;;3.20;1.95;;;3.00;74.00;;;;;;5030347;28;20029;-74
2021/01/02 05:04:07;;;;;;;4.03;2.47;;;3.00;74.00;;;;;;5030239;28;20146;-74
2021/01/02 05:06:33;;;;;;;5.90;2.28;;;3.00;74.00;;;;;;5029841;28;20099;-73
2021/01/02 05:09:00;;;;;;;2.95;2.30;;;3.00;74.00;;;;;;5029122;28;20496;-75
2021/01/02 05:11:35;;;;;;;2.33;2.13;;;3.00;74.00;;;;;;5030275;28;20087;-75
2021/01/02 05:14:02;;;;;;;3.35;1.95;;;3.00;74.00;;;;;;5029907;28;20048;-74
2021/01/02 05:16:41;;;;;;;2.17;1.95;;;3.00;74.00;;;;;;5030346;28;20108;-74
2021/01/02 05:19:15;;;;;;;2.67;2.05;;;3.00;74.00;;;;;;5028600;28;20029;-75
2021/01/02 05:21:48;;;;;;;2.60;2.28;;;3.00;74.00;;;;;;5030252;28;20077;-75
2021/01/02 05:24:19;;;;;;;1.73;1.63;;;3.00;74.00;;;;;;5029351;28;20045;-75
2021/01/02 05:26:54;;;;;;;2.33;2.00;;;3.00;74.00;;;;;;5029483;28;20396;-74
2021/01/02 05:29:23;;;;;;;2.67;1.90;;;3.00;73.90;;;;;;5029372;28;20033;-75
2021/01/02 05:32:08;;;;;;;2.38;1.90;;;3.00;73.90;;;;;;5028388;28;20029;-75
2021/01/02 05:34:34;;;;;;;4.20;1.90;;;3.00;74.00;;;;;;5029577;28;20066;-75
2021/01/02 05:37:05;;;;;;;2.80;2.10;;;3.00;73.90;;;;;;5029032;28;20025;-74
2021/01/02 05:39:36;;;;;;;4.35;1.95;;;3.00;73.90;;;;;;5029396;28;20099;-74
2021/01/02 05:42:02;;;;;;;3.03;2.17;;;3.00;73.90;;;;;;5029491;28;20069;-74
2021/01/02 05:44:38;;;;;;;3.15;2.03;;;3.00;73.90;;;;;;5029557;28;20038;-74
2021/01/02 05:47:05;;;;;;;2.60;1.80;;;3.00;73.90;;;;;;5026376;28;20058;-75
2021/01/02 05:49:38;;;;;;;5.63;2.17;;;3.00;73.90;;;;;;5026111;28;20029;-74
2021/01/02 05:52:12;;;;;;;2.33;2.13;;;3.00;73.90;;;;;;5033876;28;20041;-75
2021/01/02 05:54:47;;;;;;;2.20;2.00;;;2.90;73.70;;;;;;5040731;28;20037;-75
2021/01/02 05:57:23;;;;;;;4.88;1.98;;;2.90;73.70;;;;;;5036658;28;20037;-74
2021/01/02 05:59:54;;;;;;;1.73;1.63;;;2.90;73.70;;;;;;5036968;28;20063;-75
2021/01/02 06:02:22;;;;;;;3.55;2.33;;;2.90;73.80;;;;;;5035645;28;20037;-75
2021/01/02 06:04:58;;;;;;;10.73;2.45;;;2.90;73.80;;;;;;5035782;28;20155;-75
2021/01/02 06:07:25;;;;;;;1.67;1.58;;;2.80;73.60;;;;;;5032526;28;20065;-75
2021/01/02 06:09:52;;;;;;;2.92;1.80;;;2.90;73.80;;;;;;5041624;28;20032;-75
2021/01/02 06:12:28;;;;;;;2.67;2.17;;;2.80;73.80;;;;;;5024776;28;20091;-75
2021/01/02 06:15:05;;;;;;;1.83;1.60;;;2.80;73.70;;;;;;5039481;28;20814;-74
2021/01/02 06:17:34;;;;;;;3.30;2.28;;;2.80;73.70;;;;;;5039444;28;20025;-76
2021/01/02 06:20:04;;;;;;;3.60;2.00;;;2.80;73.70;;;;;;5037225;28;20075;-75
2021/01/02 06:22:31;;;;;;;2.08;1.88;;;2.70;73.50;;;;;;5026578;28;20049;-74
2021/01/02 06:24:58;;;;;;;3.85;1.75;;;2.70;73.50;;;;;;5042341;28;20587;-76
2021/01/02 06:27:25;;;;;;;2.10;1.90;;;2.70;73.60;;;;;;5034913;28;20029;-75
2021/01/02 06:29:53;;;;;;;1.73;1.63;;;2.70;73.50;;;;;;5043192;28;20110;-75
2021/01/02 06:32:20;;;;;;;2.72;1.77;;;2.60;73.40;;;;;;5043209;28;20059;-74
2021/01/02 06:35:25;;;;;;;4.05;2.10;;;2.60;73.40;;;;;;5042671;28;20106;-75
2021/01/02 06:37:57;;;;;;;2.10;1.90;;;2.60;73.50;;;;;;4976615;28;20113;-74
2021/01/02 06:40:33;;;;;;;2.15;1.73;;;2.60;73.60;;;;;;4962999;28;20066;-74
2021/01/02 06:43:00;;;;;;;2.67;1.98;;;2.60;73.60;;;;;;5013883;28;20048;-75
2021/01/02 06:45:36;;;;;;;2.88;2.00;;;2.60;73.50;;;;;;5030825;28;20047;-75
2021/01/02 06:48:17;;;;;;;2.53;1.83;;;2.60;73.50;;;;;;5029960;28;20085;-74
2021/01/02 06:50:44;;;;;;;2.78;2.50;;;2.60;73.50;;;;;;5035964;28;20119;-74
2021/01/02 06:53:19;;;;;;;2.97;2.20;;;2.50;73.30;;;;;;5035177;28;20100;-74
2021/01/02 06:55:46;;;;;;;3.47;2.38;;;2.50;73.30;;;;;;5043493;28;20036;-75
2021/01/02 06:58:17;;;;;;;4.68;2.28;;;2.40;73.10;;;;;;5038780;28;20040;-75
2021/01/02 07:00:43;;;;;;;2.60;2.40;;;2.40;73.20;;;;;;5034192;28;20083;-74
2021/01/02 07:03:38;;;;;;;3.85;2.50;;;2.40;73.30;;;;;;5041529;28;20120;-73
2021/01/02 07:06:22;;;;;;;3.55;2.67;;;2.40;73.30;;;;;;5039441;28;20060;-74
2021/01/02 07:08:57;;;;;;;;;;;2.40;73.30;;;;;;5047538;28;20040;-74
2021/01/02 07:11:29;;;;;;;2.95;2.70;;;2.40;73.30;;;;;;5034341;28;20302;-74
2021/01/02 07:14:08;;;;;;;4.25;2.83;;;2.30;73.00;;;;;;5034808;28;20029;-74
2021/01/02 07:16:49;;;;;;;5.05;2.85;;;2.40;73.20;;;;;;5039392;28;20038;-74
2021/01/02 07:19:24;;;;;;;6.40;3.17;;;2.30;73.10;;;;;;5044352;28;20052;-74
2021/01/02 07:22:00;;;;;;;4.18;3.05;;;2.30;73.10;;;;;;5047206;28;20044;-75
2021/01/02 07:24:30;;;;;;;3.88;2.85;;;2.30;73.20;;;;;;5046660;28;20427;-73
2021/01/02 07:27:24;;;;;;;5.95;3.58;;;2.30;73.20;;;;;;5047148;28;20032;-74
2021/01/02 07:29:55;;;;;;;5.95;3.60;;;2.20;73.10;;;;;;5045284;28;20112;-73
2021/01/02 07:32:31;;;;;;;7.45;4.25;;;2.30;73.50;;;;;;5029878;28;20219;-76
2021/01/02 07:35:06;;;;;;;6.13;3.80;;;2.30;73.50;;;;;;5047420;28;20645;-74
2021/01/02 07:37:34;;;;;;;4.97;3.42;;;2.30;73.30;;;;;;5036438;28;20116;-75
2021/01/02 07:40:00;;;;;;;5.35;4.10;;;2.30;73.20;;;;;;5046554;28;20584;-76
2021/01/02 07:42:29;;;;;;;5.65;3.53;;;2.40;73.30;;;;;;5046509;28;20112;-74
2021/01/02 07:45:08;;;;;;;6.18;3.72;;;2.30;73.10;;;;;;5028375;28;20045;-77
2021/01/02 07:47:35;;;;;;;4.30;3.67;;;2.30;73.10;;;;;;5045375;28;20274;-76
2021/01/02 07:50:10;;;;;;;5.55;3.60;;;2.30;73.10;;;;;;5045120;28;20045;-75
2021/01/02 07:52:45;;;;;;;4.32;3.28;;;2.30;73.20;;;;;;5046561;28;20438;-76
2021/01/02 07:55:12;;;;;;;4.70;4.05;;;2.20;73.00;;;;;;5044901;28;20029;-75
2021/01/02 07:57:38;;;;;;;4.80;3.70;;;2.20;73.10;;;;;;5045771;28;20025;-76
2021/01/02 08:00:07;;;;;;;4.88;4.22;;;2.20;73.10;;;;;;5046605;28;20032;-75
2021/01/02 08:02:40;;;;;;;5.82;4.28;;;2.10;73.00;;;;;;5046911;28;20173;-75
2021/01/02 08:05:08;;;;;;;4.45;4.05;;;2.10;73.00;;;;;;5046652;28;20547;-76
2021/01/02 08:07:34;;;;;;;4.90;3.80;;;2.10;73.10;;;;;;5039150;28;20055;-74
2021/01/02 08:10:00;;;;;;;5.88;5.10;;;2.10;73.10;;;;;;5043543;28;20093;-75
2021/01/02 08:12:27;;;;;;;4.70;3.85;;;2.00;72.90;;;;;;5044935;28;20032;-76
2021/01/02 08:14:53;;;;;;;8.15;4.90;;;2.00;73.00;;;;;;5043830;28;20032;-75
2021/01/02 08:17:19;;;;;;;5.00;4.22;;;1.90;72.80;;;;;;5043487;28;20117;-76
2021/01/02 08:19:48;;;;;;;7.80;4.35;;;1.90;72.80;;;;;;5046043;28;20029;-75
2021/01/02 08:22:38;;;;;;;5.32;3.50;;;1.90;72.90;;;;;;5046451;28;20098;-75
2021/01/02 08:25:17;;;;;;;4.47;3.75;;;1.90;72.90;;;;;;5045516;28;20049;-76
2021/01/02 08:27:45;;;;;;;5.22;4.43;;;1.90;72.90;;;;;;5045680;28;20037;-76
2021/01/02 08:30:13;;;;;;;7.47;4.20;;;1.90;72.90;;;;;;5045570;28;20025;-75
2021/01/02 08:32:50;;;;;;;4.68;4.18;;;1.90;72.90;;;;;;5044419;28;20028;-75
2021/01/02 08:35:26;;;;;;;4.65;4.25;;;1.80;72.70;;;;;;5045904;28;20186;-74
2021/01/02 08:37:52;;;;;;;6.18;4.43;;;1.80;72.70;;;;;;5045276;28;20033;-75
2021/01/02 08:40:19;;;;;;;5.88;4.40;;;1.80;72.70;;;;;;5027464;28;20178;-75
2021/01/02 08:42:47;;;;;;;5.32;4.78;;;1.80;72.80;;;;;;5044684;28;20032;-74
2021/01/02 08:45:27;;;;;;;5.63;4.45;;;1.80;73.20;;;;;;5045517;28;20092;-76
2021/01/02 08:48:08;;;;;;;5.63;4.75;;;1.80;72.80;;;;;;5044534;28;20057;-76
2021/01/02 08:50:35;;;;;;;5.35;4.47;;;1.80;72.70;;;;;;5037747;28;20033;-74
2021/01/02 08:53:01;;;;;;;5.95;4.60;;;1.80;73.30;;;;;;5051027;28;20456;-76
2021/01/02 08:55:29;;;;;;;7.20;4.75;;;1.80;72.80;;;;;;5004534;28;20025;-75
2021/01/02 08:57:55;;;;;;;6.32;4.93;;;1.70;72.60;;;;;;5040791;28;20021;-75
2021/01/02 09:00:29;;;;;;;5.25;4.40;;;1.70;72.60;;;;;;5044018;28;20033;-75
2021/01/02 09:02:56;;;;;;;6.40;4.10;;;1.70;72.60;;;;;;5044912;28;20420;-75
2021/01/02 09:05:31;;;;;;;9.82;4.72;;;1.80;72.80;;;;;;5043220;28;20037;-75
2021/01/02 09:08:04;;;;;;;4.30;3.85;;;1.70;72.60;;;;;;5042894;28;20568;-74
2021/01/02 09:10:31;;;;;;;4.63;3.95;;;1.70;72.60;;;;;;5045102;28;20136;-74
2021/01/02 09:13:24;;;;;;;4.18;3.72;;;1.70;72.60;;;;;;5043426;28;20060;-74
2021/01/02 09:15:57;;;;;;;5.50;4.25;;;1.70;72.50;;;;;;5043572;28;20033;-75
2021/01/02 09:18:23;;;;;;;7.25;4.40;;;1.70;72.50;;;;;;5027115;28;20103;-75
2021/01/02 09:20:49;;;;;;;6.18;5.43;;;1.70;72.50;;;;;;5044964;28;20068;-75
2021/01/02 09:23:32;;;;;;;7.85;4.65;;;1.70;72.50;;;;;;5043164;28;20166;-75
2021/01/02 09:25:58;;;;;;;6.72;4.55;;;1.70;72.50;;;;;;5044517;28;20045;-75
2021/01/02 09:28:24;;;;;;;8.18;4.70;;;1.70;72.50;;;;;;5042367;28;20334;-75
2021/01/02 09:30:51;;;;;;;6.97;5.60;;;1.70;72.50;;;;;;5044330;28;20035;-75
2021/01/02 09:33:17;;;;;;;6.55;5.50;;;1.70;72.50;;;;;;5043131;28;20456;-74
2021/01/02 09:35:45;;;;;;;7.05;5.00;;;1.70;72.50;;;;;;5043382;28;20507;-76
2021/01/02 09:38:12;;;;;;;7.47;5.70;;;1.70;72.50;;;;;;5043588;28;20520;-75
2021/01/02 09:40:43;;;;;;;6.80;5.22;;;1.70;72.50;;;;;;5043306;28;20021;-74
2021/01/02 09:43:13;;;;;;;8.45;6.05;;;1.80;72.60;;;;;;5042949;28;20399;-75
2021/01/02 09:45:39;;;;;;;8.10;5.80;;;1.80;72.60;;;;;;5044132;28;20204;-75
2021/01/02 09:48:06;;;;;;;10.60;6.22;;;1.80;72.60;;;;;;5042769;28;20178;-75
2021/01/02 09:50:33;;;;;;;9.30;6.57;;;1.80;72.60;;;;;;5044197;28;20025;-74
2021/01/02 09:53:00;;;;;;;7.68;5.97;;;1.80;72.60;;;;;;5042395;28;20033;-74
2021/01/02 09:55:26;;;;;;;8.45;5.97;;;1.80;72.50;;;;;;5042365;28;20036;-74
2021/01/02 09:57:52;;;;;;;10.27;6.15;;;1.80;72.50;;;;;;5044578;28;20028;-75
2021/01/02 10:00:19;;;;;;;7.78;6.55;;;1.90;72.70;;;;;;5043466;28;20413;-74
2021/01/02 10:02:46;;;;;;;6.32;5.20;;;1.90;72.70;;;;;;5043535;28;20449;-75
2021/01/02 10:05:17;;;;;;;8.27;6.63;;;1.90;72.70;;;;;;5045019;28;20040;-74
2021/01/02 10:07:43;;;;;;;5.95;5.32;;;1.90;72.70;;;;;;5042663;28;20095;-74
2021/01/02 10:10:11;;;;;;;7.22;5.85;;;1.90;72.60;;;;;;5026349;28;20392;-74
2021/01/02 10:12:37;;;;;;;8.57;5.38;;;1.90;72.70;;;;;;5043939;28;20387;-75
2021/01/02 10:15:05;;;;;;;8.98;7.13;;;2.00;72.80;;;;;;5042732;28;20376;-75
2021/01/02 10:17:31;;;;;;;9.75;6.32;;;2.10;73.00;;;;;;5044637;28;20025;-74
2021/01/02 10:19:57;;;;;;;10.70;6.00;;;2.10;72.90;;;;;;5043388;28;20072;-74
2021/01/02 10:22:23;;;;;;;7.43;6.30;;;2.10;72.90;;;;;;5043414;28;20498;-73
2021/01/02 10:24:52;;;;;;;6.20;5.55;;;2.20;73.10;;;;;;5043935;28;20468;-75
2021/01/02 10:27:19;;;;;;;7.85;6.15;;;2.30;73.10;;;;;;5042813;28;20120;-74
2021/01/02 10:29:47;;;;;;;9.23;6.55;;;2.30;73.10;;;;;;5042999;28;20033;-75
2021/01/02 10:32:14;;;;;;;7.88;5.13;;;2.40;73.20;;;;;;5044831;28;20044;-75
2021/01/02 10:34:41;;;;;;;7.68;5.97;;;2.50;73.30;;;;;;5025829;28;20041;-77
2021/01/02 10:37:08;;;;;;;8.32;6.75;;;2.60;73.40;;;;;;5044570;28;20294;-76
2021/01/02 10:39:37;;;;;;;9.93;7.05;;;2.70;73.50;;;;;;5043296;28;20037;-76
2021/01/02 10:42:04;;;;;;;7.75;6.78;;;2.70;73.40;;;;;;5045550;28;20029;-76
2021/01/02 10:44:30;;;;;;;9.77;6.80;;;2.80;73.60;;;;;;5046948;28;20021;-76
2021/01/02 10:46:56;;;;;;;8.35;7.28;;;2.80;73.50;;;;;;5039015;28;20884;-76
2021/01/02 10:49:22;;;;;;;7.63;6.43;;;2.90;73.60;;;;;;5038617;28;20025;-75
2021/01/02 10:51:49;;;;;;;8.85;6.13;;;3.00;73.80;;;;;;5033543;28;20091;-74
2021/01/02 10:54:17;;;;;;;9.30;6.18;;;3.10;73.90;;;;;;5033298;28;20032;-75
2021/01/02 10:56:47;;;;;;;8.50;7.22;;;3.20;74.00;;;;;;5034213;28;20040;-75
2021/01/02 10:59:13;;;;;;;9.75;8.18;;;3.30;74.10;;;;;;5046148;28;20472;-76
2021/01/02 11:01:46;;;;;;;12.70;8.75;;;3.30;74.00;;;;;;5042716;28;20068;-74
2021/01/02 11:04:13;;;;;;;13.77;9.13;;;3.40;74.10;;;;;;5035186;28;20042;-74
2021/01/02 11:06:40;;;;;;;11.95;8.45;;;3.50;74.30;;;;;;5046050;28;20492;-73
2021/01/02 11:09:09;;;;;;;10.25;8.52;;;3.60;74.40;;;;;;5046477;28;20057;-73
2021/01/02 11:11:35;;;;;;;9.68;8.18;;;3.60;74.40;;;;;;5046470;28;20175;-73
2021/01/02 11:14:02;;;;;;;8.57;7.75;;;3.70;74.50;;;;;;5041327;28;20041;-73
2021/01/02 11:16:42;;;;;;;9.05;8.15;;;3.80;74.60;;;;;;5043217;28;20029;-74
2021/01/02 11:19:28;;;;;;;9.32;7.97;;;3.90;74.80;;;;;;5047226;28;20048;-72
2021/01/02 11:22:00;;;;;;;16.63;8.88;;;3.90;74.80;;;;;;5043601;28;20115;-79
2021/01/02 11:24:37;;;;;;;13.32;9.48;;;4.10;75.70;;;;;;5045282;28;20383;-76
2021/01/02 11:27:04;;;;;;;11.00;9.98;;;4.40;76.20;;;;;;5046822;28;20064;-74
2021/01/02 11:29:30;;;;;;;10.45;9.35;;;4.60;76.10;;;;;;5044843;28;20025;-73
2021/01/02 11:31:58;;;;;;;12.60;9.38;;;4.80;76.20;;;;;;5027804;28;20064;-73
2021/01/02 11:34:25;;;;;;;8.75;7.80;;;4.90;76.30;;;;;;5044774;28;20025;-74
2021/01/02 11:36:54;;;;;;;8.75;7.88;;;5.00;76.30;;;;;;5043725;28;20028;-74
2021/01/02 11:39:21;;;;;;;8.68;7.65;;;5.00;76.30;;;;;;5045704;28;20029;-73
2021/01/02 11:41:47;;;;;;;7.80;6.53;;;5.10;76.40;;;;;;5045312;28;20086;-76
2021/01/02 11:44:17;;;;;;;8.80;6.72;;;5.10;76.40;;;;;;5046055;28;20385;-73
2021/01/02 11:46:46;;;;;;;9.10;7.00;;;5.10;76.30;;;;;;5044539;28;20056;-74
2021/01/02 11:49:18;;;;;;;8.57;6.88;;;5.20;76.50;;;;;;5046425;28;20025;-74
2021/01/02 11:51:57;;;;;;;7.90;6.75;;;5.20;76.50;;;;;;5045949;28;20037;-74
2021/01/02 11:54:24;;;;;;;7.18;6.47;;;5.20;76.60;;;;;;5048861;28;20172;-74
2021/01/02 11:56:50;;;;;;;7.22;6.20;;;5.20;76.60;;;;;;5046640;28;20074;-74
2021/01/02 11:59:17;;;;;;;8.57;6.00;;;5.20;76.60;;;;;;5045590;28;20444;-76
2021/01/02 12:01:53;;;;;;;7.53;5.75;;;5.20;76.70;;;;;;5046347;28;20060;-76
2021/01/02 12:04:22;;;;;;;6.82;6.13;;;5.20;76.80;;;;;;5045023;28;20373;-74
2021/01/02 12:06:48;;;;;;;6.53;5.85;;;5.20;76.90;;;;;;5046245;28;20032;-75
2021/01/02 12:09:16;;;;;;;7.53;6.35;;;5.20;76.90;;;;;;5045882;28;20040;-74
2021/01/02 12:11:45;;;;;;;10.30;6.35;;;5.20;76.90;;;;;;5046280;28;20439;-74
2021/01/02 12:14:18;;;;;;;7.90;5.70;;;5.20;77.00;;;;;;5045473;28;20033;-74
2021/01/02 12:16:47;;;;;;;6.05;5.45;;;5.20;76.90;;;;;;5045721;28;20033;-72
2021/01/02 12:19:19;;;;;;;7.72;6.20;;;5.30;77.10;;;;;;5045250;28;20040;-74
2021/01/02 12:21:45;;;;;;;6.13;5.25;;;5.30;77.10;;;;;;5045903;28;20380;-74
2021/01/02 12:24:12;;;;;;;6.40;5.75;;;5.30;77.10;;;;;;5044111;28;20025;-74
2021/01/02 12:26:46;;;;;;;6.13;5.53;;;5.30;77.10;;;;;;5043996;28;20029;-73
2021/01/02 12:29:14;;;;;;;6.05;5.50;;;5.30;77.10;;;;;;5044391;28;20154;-73
2021/01/02 12:31:43;;;;;;;7.07;5.85;;;5.30;77.10;;;;;;5045874;28;20036;-72
2021/01/02 12:34:09;;;;;;;5.30;4.80;;;5.30;77.10;;;;;;5044753;28;20118;-74
2021/01/02 12:36:42;;;;;;;6.07;5.47;;;5.30;77.10;;;;;;5045622;28;20421;-73
2021/01/02 12:39:10;;;;;;;8.40;5.07;;;5.20;77.00;;;;;;5045158;28;20067;-72
2021/01/02 12:41:36;;;;;;;6.20;5.60;;;5.20;77.00;;;;;;5045278;28;20032;-74
2021/01/02 12:44:04;;;;;;;6.47;5.65;;;5.20;77.00;;;;;;5044753;28;20465;-75
2021/01/02 12:46:41;;;;;;;5.70;5.10;;;5.30;77.20;;;;;;5044906;28;20360;-72
2021/01/02 12:49:08;;;;;;;5.80;5.22;;;5.20;77.00;;;;;;5045479;28;20036;-71
2021/01/02 12:51:34;;;;;;;5.70;5.10;;;5.20;77.00;;;;;;5044082;28;20025;-71
2021/01/02 12:54:00;;;;;;;5.53;4.90;;;5.20;77.00;;;;;;5044625;28;20131;-72
2021/01/02 12:56:27;;;;;;;5.03;4.38;;;5.20;77.00;;;;;;5044702;28;20040;-70
2021/01/02 12:58:53;;;;;;;5.15;4.13;;;5.20;77.00;;;;;;5044417;28;20488;-72
2021/01/02 13:01:19;;;;;;;4.50;4.10;;;5.20;77.00;;;;;;5043010;28;20029;-72
2021/01/02 13:03:45;;;;;;;4.63;4.22;;;5.20;77.50;;;;;;5035927;28;20075;-71
2021/01/02 13:06:12;;;;;;;5.25;4.75;;;5.20;77.00;;;;;;5034577;28;20044;-71
2021/01/02 13:08:38;;;;;;;7.15;4.93;;;5.20;77.00;;;;;;5034740;28;20036;-73
2021/01/02 13:11:13;;;;;;;4.93;3.78;;;5.20;77.10;;;;;;5026878;28;20029;-72
2021/01/02 13:13:38;;;;;;;5.30;3.63;;;5.30;77.40;;;;;;5043279;28;20120;-74
2021/01/02 13:16:10;;;;;;;4.95;3.20;;;5.40;77.60;;;;;;5043443;28;20123;-73
2021/01/02 13:18:36;;;;;;;4.78;3.38;;;5.50;77.80;;;;;;5043203;28;20025;-72